createdAt,value
2022-09-27T00:01:38.711Z,1.40
2022-09-27T00:04:06.524Z,1.17
2022-09-27T00:06:39.925Z,1.30
2022-09-27T00:09:08.786Z,1.02
2022-09-27T00:11:38.856Z,0.90
2022-09-27T00:14:08.146Z,1.15
2022-09-27T00:16:38.750Z,1.30
2022-09-27T00:19:08.974Z,1.00
2022-09-27T00:21:38.139Z,0.82
2022-09-27T00:24:06.388Z,1.10
2022-09-27T00:26:34.165Z,1.23
2022-09-27T00:29:02.009Z,1.00
2022-09-27T00:31:31.511Z,1.15
2022-09-27T00:34:01.823Z,1.13
2022-09-27T00:36:30.664Z,1.20
2022-09-27T00:39:00.863Z,0.90
2022-09-27T00:41:32.040Z,1.40
2022-09-27T00:44:01.824Z,1.05
2022-09-27T00:46:33.546Z,1.00
2022-09-27T00:49:08.258Z,0.90
2022-09-27T00:51:40.313Z,1.00
2022-09-27T00:54:12.514Z,1.00
2022-09-27T00:56:43.385Z,0.93
2022-09-27T00:59:17.478Z,0.65
2022-09-27T01:01:45.962Z,1.20
2022-09-27T01:04:16.621Z,1.05
2022-09-27T01:06:44.397Z,1.15
2022-09-27T01:09:14.188Z,0.88
2022-09-27T01:11:46.106Z,0.75
2022-09-27T01:14:42.127Z,1.20
2022-09-27T01:17:21.649Z,1.00
2022-09-27T01:20:25.604Z,1.00
2022-09-27T01:23:11.096Z,0.90
2022-09-27T01:25:57.762Z,1.15
2022-09-27T01:28:43.184Z,0.85
2022-09-27T01:31:20.315Z,1.17
2022-09-27T01:33:54.311Z,0.93
2022-09-27T01:36:29.784Z,1.08
2022-09-27T01:39:12.128Z,1.10
2022-09-27T01:41:47.935Z,0.90
2022-09-27T01:44:24.265Z,1.17
2022-09-27T01:46:56.297Z,1.05
2022-09-27T01:49:31.756Z,0.70
2022-09-27T01:52:02.472Z,1.00
2022-09-27T01:54:36.979Z,0.90
2022-09-27T01:57:07.341Z,0.90
2022-09-27T01:59:38.810Z,0.90
2022-09-27T02:02:12.168Z,0.88
2022-09-27T02:04:43.265Z,1.13
2022-09-27T02:07:15.608Z,1.08
2022-09-27T02:09:49.632Z,1.42
2022-09-27T02:12:23.370Z,1.20
2022-09-27T02:14:54.649Z,1.15
2022-09-27T02:17:32.380Z,1.25
2022-09-27T02:20:08.924Z,0.98
2022-09-27T02:22:39.730Z,1.20
2022-09-27T02:25:14.871Z,1.30
2022-09-27T02:27:53.556Z,0.82
2022-09-27T02:30:21.592Z,1.02
2022-09-27T02:32:50.786Z,1.20
2022-09-27T02:35:23.384Z,1.60
2022-09-27T02:37:51.929Z,1.88
2022-09-27T02:40:20.583Z,1.10
2022-09-27T02:42:48.627Z,1.40
2022-09-27T02:45:19.646Z,1.27
2022-09-27T02:48:03.600Z,1.00
2022-09-27T02:50:50.864Z,1.10
2022-09-27T02:53:29.277Z,1.05
2022-09-27T02:56:04.269Z,1.65
2022-09-27T02:58:50.494Z,1.23
2022-09-27T03:01:27.787Z,1.42
2022-09-27T03:04:04.167Z,1.52
2022-09-27T03:06:34.048Z,1.70
2022-09-27T03:09:01.866Z,1.40
2022-09-27T03:11:29.629Z,1.55
2022-09-27T03:14:08.288Z,1.60
2022-09-27T03:16:36.584Z,1.40
2022-09-27T03:19:05.792Z,1.40
2022-09-27T03:21:33.557Z,1.77
2022-09-27T03:24:01.563Z,1.90
2022-09-27T03:26:29.577Z,2.20
2022-09-27T03:28:57.371Z,2.08
2022-09-27T03:31:25.277Z,1.95
2022-09-27T03:33:53.099Z,2.00
2022-09-27T03:36:22.251Z,2.25
2022-09-27T03:38:50.071Z,2.35
2022-09-27T03:41:17.944Z,2.50
2022-09-27T03:43:45.725Z,1.70
2022-09-27T03:46:13.578Z,2.25
2022-09-27T03:48:42.519Z,2.28
2022-09-27T03:51:12.092Z,2.15
2022-09-27T03:53:41.224Z,2.20
2022-09-27T03:56:09.020Z,2.00
2022-09-27T03:58:36.833Z,2.00
2022-09-27T04:01:04.783Z,2.20
2022-09-27T04:03:32.653Z,2.95
2022-09-27T04:06:00.787Z,1.90
2022-09-27T04:08:28.596Z,1.80
2022-09-27T04:10:58.308Z,3.17
2022-09-27T04:13:26.184Z,2.75
2022-09-27T04:15:54.149Z,2.70
2022-09-27T04:18:21.940Z,2.28
2022-09-27T04:20:49.738Z,1.58
2022-09-27T04:23:17.859Z,1.63
2022-09-27T04:25:45.625Z,1.77
2022-09-27T04:28:15.726Z,2.63
2022-09-27T04:30:43.566Z,1.17
2022-09-27T04:33:11.395Z,1.20
2022-09-27T04:35:56.986Z,1.52
2022-09-27T04:38:24.788Z,1.42
2022-09-27T04:40:52.658Z,1.30
2022-09-27T04:43:21.928Z,1.20
2022-09-27T04:45:49.813Z,1.20
2022-09-27T04:48:17.654Z,0.73
2022-09-27T04:50:45.442Z,1.17
2022-09-27T04:53:14.915Z,1.05
2022-09-27T04:55:46.956Z,1.20
2022-09-27T04:58:14.755Z,1.30
2022-09-27T05:00:43.914Z,1.08
2022-09-27T05:03:11.716Z,1.00
2022-09-27T05:05:39.530Z,1.17
2022-09-27T05:08:07.300Z,1.45
2022-09-27T05:10:35.075Z,1.00
2022-09-27T05:13:02.875Z,1.00
2022-09-27T05:15:30.690Z,0.93
2022-09-27T05:17:59.844Z,0.90
2022-09-27T05:20:27.919Z,0.95
2022-09-27T05:22:55.766Z,1.08
2022-09-27T05:25:23.672Z,0.80
2022-09-27T05:27:52.137Z,0.93
2022-09-27T05:30:20.192Z,1.20
2022-09-27T05:32:49.218Z,1.33
2022-09-27T05:35:19.313Z,1.73
2022-09-27T05:37:53.047Z,1.92
2022-09-27T05:40:40.406Z,2.13
2022-09-27T05:43:09.151Z,2.20
2022-09-27T05:45:37.048Z,1.77
2022-09-27T05:48:05.226Z,2.15
2022-09-27T05:50:34.467Z,1.63
2022-09-27T05:53:02.292Z,1.50
2022-09-27T05:55:30.425Z,1.70
2022-09-27T05:57:59.765Z,1.17
2022-09-27T06:00:28.677Z,1.20
2022-09-27T06:02:57.456Z,1.02
2022-09-27T06:05:26.391Z,1.33
2022-09-27T06:07:59.937Z,1.10
2022-09-27T06:10:28.838Z,1.25
2022-09-27T06:13:01.091Z,1.23
2022-09-27T06:15:28.907Z,1.10
2022-09-27T06:17:56.808Z,1.25
2022-09-27T06:20:24.628Z,1.60
2022-09-27T06:22:54.070Z,1.65
2022-09-27T06:25:23.184Z,1.02
2022-09-27T06:27:51.124Z,1.23
2022-09-27T06:30:20.513Z,1.40
2022-09-27T06:32:48.528Z,1.38
2022-09-27T06:35:16.379Z,1.30
2022-09-27T06:37:44.144Z,1.48
2022-09-27T06:40:12.043Z,1.50
2022-09-27T06:42:41.179Z,1.90
2022-09-27T06:45:09.596Z,1.30
2022-09-27T06:47:37.637Z,1.40
2022-09-27T06:50:06.486Z,1.13
2022-09-27T06:52:34.970Z,1.30
2022-09-27T06:55:03.249Z,1.48
2022-09-27T06:57:49.204Z,1.30
2022-09-27T07:00:24.495Z,1.30
2022-09-27T07:02:52.291Z,1.37
2022-09-27T07:05:20.849Z,1.00
2022-09-27T07:07:49.043Z,0.95
2022-09-27T07:10:18.101Z,0.80
2022-09-27T07:12:48.694Z,0.80
2022-09-27T07:15:18.560Z,2.63
2022-09-27T07:17:46.964Z,0.70
2022-09-27T07:20:14.989Z,0.80
2022-09-27T07:22:45.426Z,0.70
2022-09-27T07:25:13.341Z,0.68
2022-09-27T07:27:42.163Z,0.82
2022-09-27T07:30:11.882Z,1.00
2022-09-27T07:32:42.231Z,0.98
2022-09-27T07:35:12.069Z,0.50
2022-09-27T07:37:39.899Z,0.60
2022-09-27T07:40:09.835Z,0.60
2022-09-27T07:42:38.859Z,0.60
2022-09-27T07:45:09.313Z,0.70
2022-09-27T07:47:38.716Z,0.80
2022-09-27T07:50:10.572Z,0.52
2022-09-27T07:52:41.985Z,1.30
2022-09-27T07:55:11.585Z,0.93
2022-09-27T07:57:39.801Z,0.60
2022-09-27T08:00:10.257Z,0.50
2022-09-27T08:02:38.164Z,0.80
2022-09-27T08:05:08.964Z,0.70
2022-09-27T08:07:37.154Z,0.43
2022-09-27T08:10:05.431Z,0.68
2022-09-27T08:12:33.683Z,1.05
2022-09-27T08:15:02.718Z,0.77
2022-09-27T08:17:30.509Z,0.85
2022-09-27T08:19:58.747Z,1.35
2022-09-27T08:22:27.899Z,0.80
2022-09-27T08:24:55.763Z,0.82
2022-09-27T08:27:23.576Z,0.60
2022-09-27T08:29:51.382Z,0.70
2022-09-27T08:32:23.016Z,0.43
2022-09-27T08:34:51.319Z,0.95
2022-09-27T08:37:19.091Z,0.60
2022-09-27T08:39:48.419Z,0.60
2022-09-27T08:42:28.263Z,0.68
2022-09-27T08:45:03.669Z,0.60
2022-09-27T08:47:37.854Z,0.50
2022-09-27T08:50:15.931Z,0.70
2022-09-27T08:52:48.192Z,0.60
2022-09-27T08:55:23.138Z,0.90
2022-09-27T08:57:54.580Z,0.65
2022-09-27T09:00:23.263Z,0.82
2022-09-27T09:02:51.204Z,0.70
2022-09-27T09:05:25.959Z,0.70
2022-09-27T09:08:06.653Z,1.00
2022-09-27T09:11:07.219Z,0.82
2022-09-27T09:13:53.820Z,0.70
2022-09-27T09:19:13.150Z,1.13
2022-09-27T09:21:49.131Z,1.00
2022-09-27T09:24:31.160Z,0.70
2022-09-27T09:27:07.976Z,0.90
2022-09-27T09:30:06.880Z,1.20
2022-09-27T09:32:45.573Z,1.40
2022-09-27T09:35:16.929Z,1.33
2022-09-27T09:37:48.966Z,1.10
2022-09-27T09:40:23.329Z,1.10
2022-09-27T09:42:58.391Z,1.40
2022-09-27T09:45:30.348Z,1.50
2022-09-27T09:48:04.277Z,2.17
2022-09-27T09:50:36.403Z,1.30
2022-09-27T09:53:13.018Z,1.10
2022-09-27T09:55:43.286Z,1.23
2022-09-27T09:58:22.608Z,1.20
2022-09-27T10:00:53.663Z,1.27
2022-09-27T10:03:21.480Z,1.58
2022-09-27T10:05:49.424Z,1.35
2022-09-27T10:08:21.396Z,1.25
2022-09-27T10:10:49.512Z,1.50
2022-09-27T10:13:21.506Z,1.55
2022-09-27T10:15:55.989Z,1.52
2022-09-27T10:18:26.306Z,1.20
2022-09-27T10:20:58.131Z,1.30
2022-09-27T10:23:26.541Z,1.40
2022-09-27T10:25:56.723Z,1.13
2022-09-27T10:28:32.833Z,1.20
2022-09-27T10:33:31.550Z,0.93
2022-09-27T10:36:00.944Z,1.10
2022-09-27T10:38:31.059Z,1.10
2022-09-27T10:41:16.553Z,1.17
2022-09-27T10:43:45.768Z,0.95
2022-09-27T10:46:22.852Z,0.88
2022-09-27T10:49:09.120Z,0.70
2022-09-27T10:51:37.824Z,1.50
2022-09-27T10:54:06.582Z,0.80
2022-09-27T10:56:36.716Z,0.73
2022-09-27T10:59:06.032Z,0.63
2022-09-27T11:01:41.783Z,0.40
2022-09-27T11:04:22.376Z,0.50
2022-09-27T11:06:50.441Z,0.70
2022-09-27T11:09:24.325Z,0.60
2022-09-27T11:11:52.410Z,0.90
2022-09-27T11:14:23.843Z,0.93
2022-09-27T11:17:13.980Z,1.10
2022-09-27T11:19:55.407Z,0.60
2022-09-27T11:22:35.560Z,0.80
2022-09-27T11:25:16.436Z,0.68
2022-09-27T11:28:00.024Z,0.95
2022-09-27T11:30:37.587Z,0.88
2022-09-27T11:33:31.099Z,0.82
2022-09-27T11:36:07.304Z,0.60
2022-09-27T11:38:53.257Z,1.20
2022-09-27T11:41:33.830Z,0.90
2022-09-27T11:44:28.732Z,0.90
2022-09-27T11:47:12.092Z,0.60
2022-09-27T11:50:18.340Z,0.80
2022-09-27T11:52:59.660Z,0.65
2022-09-27T11:55:39.624Z,0.90
2022-09-27T11:58:16.829Z,0.73
2022-09-27T12:00:58.995Z,0.90
2022-09-27T12:04:00.571Z,1.05
2022-09-27T12:06:38.344Z,1.83
2022-09-27T12:09:11.312Z,5.57
2022-09-27T12:11:44.144Z,2.17
2022-09-27T12:14:20.903Z,1.58
2022-09-27T12:16:52.634Z,1.23
2022-09-27T12:19:26.891Z,1.20
2022-09-27T12:21:57.629Z,1.10
2022-09-27T12:24:26.201Z,1.08
2022-09-27T12:26:56.128Z,1.30
2022-09-27T12:29:29.818Z,1.30
2022-09-27T12:32:05.855Z,1.58
2022-09-27T12:34:39.888Z,1.45
2022-09-27T12:37:13.607Z,1.10
2022-09-27T12:39:51.541Z,1.40
2022-09-27T12:42:24.691Z,0.95
2022-09-27T12:44:53.189Z,1.27
2022-09-27T12:47:41.120Z,0.80
2022-09-27T12:50:19.924Z,0.90
2022-09-27T12:52:53.441Z,1.00
2022-09-27T12:55:52.252Z,1.33
2022-09-27T12:58:38.025Z,1.10
2022-09-27T13:01:17.847Z,1.23
2022-09-27T13:04:05.066Z,1.02
2022-09-27T13:06:48.452Z,0.80
2022-09-27T13:09:30.603Z,0.50
2022-09-27T13:12:10.871Z,0.63
2022-09-27T13:14:44.416Z,0.70
2022-09-27T13:17:33.853Z,0.85
2022-09-27T13:20:42.497Z,1.00
2022-09-27T13:23:58.864Z,0.70
2022-09-27T13:26:49.994Z,1.30
2022-09-27T13:29:30.091Z,1.42
2022-09-27T13:32:23.146Z,0.85
2022-09-27T13:34:53.593Z,1.20
2022-09-27T13:37:47.986Z,0.98
2022-09-27T13:40:28.306Z,1.20
2022-09-27T13:43:28.008Z,1.00
2022-09-27T13:45:58.612Z,0.90
2022-09-27T13:48:31.594Z,1.27
2022-09-27T13:51:08.906Z,0.80
2022-09-27T13:53:39.260Z,0.88
2022-09-27T13:56:28.019Z,0.47
2022-09-27T13:59:00.172Z,0.70
2022-09-27T14:01:32.747Z,1.30
2022-09-27T14:04:04.538Z,0.80
2022-09-27T14:06:36.317Z,0.57
2022-09-27T14:09:06.120Z,0.98
2022-09-27T14:11:38.763Z,1.45
2022-09-27T14:14:16.323Z,0.80
2022-09-27T14:16:47.429Z,0.82
2022-09-27T14:19:19.022Z,1.33
2022-09-27T14:21:47.442Z,0.70
2022-09-27T14:24:30.104Z,0.68
2022-09-27T14:27:12.771Z,0.80
2022-09-27T14:29:46.569Z,1.25
2022-09-27T14:32:16.396Z,0.60
2022-09-27T14:34:44.460Z,0.60
2022-09-27T14:37:25.804Z,0.57
2022-09-27T14:39:59.182Z,1.00
2022-09-27T14:42:29.283Z,0.65
2022-09-27T14:45:02.351Z,1.17
2022-09-27T14:47:30.057Z,1.80
2022-09-27T14:50:00.763Z,1.35
2022-09-27T14:52:31.849Z,1.40
2022-09-27T14:55:02.429Z,1.08
2022-09-27T14:57:33.936Z,0.85
2022-09-27T15:00:16.994Z,1.35
2022-09-27T15:02:45.405Z,2.03
2022-09-27T15:05:17.079Z,0.95
2022-09-27T15:07:46.209Z,0.60
2022-09-27T15:10:17.724Z,2.22
2022-09-27T15:12:48.941Z,1.02
2022-09-27T15:15:23.636Z,0.57
2022-09-27T15:17:51.523Z,0.68
2022-09-27T15:20:25.989Z,0.70
2022-09-27T15:22:53.988Z,0.80
2022-09-27T15:25:34.669Z,0.90
2022-09-27T15:28:05.411Z,0.95
2022-09-27T15:30:39.399Z,0.47
2022-09-27T15:33:08.712Z,0.95
2022-09-27T15:35:37.536Z,1.40
2022-09-27T15:38:37.914Z,1.42
2022-09-27T15:41:12.911Z,1.10
2022-09-27T15:43:45.372Z,1.20
2022-09-27T15:46:39.031Z,0.93
2022-09-27T15:49:22.838Z,1.20
2022-09-27T15:51:52.420Z,0.50
2022-09-27T15:54:21.420Z,0.60
2022-09-27T15:56:54.479Z,2.03
2022-09-27T15:59:25.600Z,0.57
2022-09-27T16:01:57.252Z,0.80
2022-09-27T16:04:26.137Z,0.93
2022-09-27T16:06:54.518Z,1.50
2022-09-27T16:09:22.648Z,1.52
2022-09-27T16:11:51.568Z,1.52
2022-09-27T16:14:20.002Z,1.10
2022-09-27T16:16:50.858Z,1.52
2022-09-27T16:19:20.284Z,1.20
2022-09-27T16:21:48.871Z,1.10
2022-09-27T16:24:17.062Z,1.52
2022-09-27T16:26:44.838Z,1.55
2022-09-27T16:29:14.358Z,0.90
2022-09-27T16:31:42.603Z,1.00
2022-09-27T16:34:11.152Z,0.63
2022-09-27T16:36:40.773Z,0.82
2022-09-27T16:39:12.640Z,0.90
2022-09-27T16:41:42.209Z,0.90
2022-09-27T16:44:11.755Z,0.63
2022-09-27T16:46:41.472Z,1.00
2022-09-27T16:49:30.280Z,0.98
2022-09-27T16:52:01.386Z,2.58
2022-09-27T16:54:29.387Z,1.98
2022-09-27T16:56:57.661Z,1.75
2022-09-27T16:59:25.666Z,1.38
2022-09-27T17:01:57.771Z,1.27
2022-09-27T17:04:26.468Z,1.88
2022-09-27T17:06:54.243Z,1.77
2022-09-27T17:09:23.353Z,2.80
2022-09-27T17:11:51.549Z,2.20
2022-09-27T17:14:19.635Z,1.70
2022-09-27T17:16:48.886Z,1.50
2022-09-27T17:19:18.165Z,1.60
2022-09-27T17:21:46.959Z,1.30
2022-09-27T17:24:14.796Z,0.70
2022-09-27T17:26:44.543Z,0.85
2022-09-27T17:29:13.219Z,0.80
2022-09-27T17:31:42.349Z,0.80
2022-09-27T17:34:13.047Z,1.90
2022-09-27T17:36:42.995Z,1.20
2022-09-27T17:39:13.623Z,0.90
2022-09-27T17:41:43.689Z,0.90
2022-09-27T17:44:14.435Z,0.93
2022-09-27T17:46:43.703Z,1.00
2022-09-27T17:49:30.202Z,0.93
2022-09-27T17:51:58.035Z,1.00
2022-09-27T17:54:27.853Z,1.40
2022-09-27T17:56:57.219Z,1.38
2022-09-27T17:59:25.945Z,1.70
2022-09-27T18:01:53.926Z,1.00
2022-09-27T18:04:21.800Z,0.98
2022-09-27T18:06:49.674Z,1.08
2022-09-27T18:09:18.684Z,0.90
2022-09-27T18:11:46.751Z,2.05
2022-09-27T18:14:16.231Z,1.65
2022-09-27T18:16:44.776Z,1.33
2022-09-27T18:19:14.855Z,1.85
2022-09-27T18:21:42.995Z,1.70
2022-09-27T18:24:11.559Z,1.70
2022-09-27T18:26:40.449Z,2.95
2022-09-27T18:29:10.677Z,1.70
2022-09-27T18:31:42.833Z,1.35
2022-09-27T18:34:12.913Z,1.67
2022-09-27T18:36:42.305Z,1.75
2022-09-27T18:39:13.669Z,2.00
2022-09-27T18:41:41.609Z,3.92
2022-09-27T18:44:12.069Z,5.78
2022-09-27T18:46:41.440Z,3.72
2022-09-27T18:49:11.227Z,3.40
2022-09-27T18:51:42.220Z,1.90
2022-09-27T18:54:15.160Z,1.42
2022-09-27T18:56:42.995Z,1.52
2022-09-27T18:59:11.603Z,1.90
2022-09-27T19:01:44.822Z,1.90
2022-09-27T19:04:15.045Z,1.80
2022-09-27T19:06:42.850Z,1.33
2022-09-27T19:09:12.377Z,1.75
2022-09-27T19:11:40.575Z,3.17
2022-09-27T19:14:08.611Z,2.70
2022-09-27T19:16:36.327Z,2.10
2022-09-27T19:19:05.558Z,1.30
2022-09-27T19:21:33.474Z,1.65
2022-09-27T19:24:01.311Z,1.55
2022-09-27T19:26:29.604Z,1.77
2022-09-27T19:28:58.720Z,2.25
2022-09-27T19:31:29.462Z,1.35
2022-09-27T19:34:00.517Z,1.55
2022-09-27T19:36:29.950Z,1.10
2022-09-27T19:38:58.382Z,1.42
2022-09-27T19:41:26.902Z,1.20
2022-09-27T19:43:56.684Z,1.35
2022-09-27T19:46:25.929Z,1.20
2022-09-27T19:48:55.174Z,1.05
2022-09-27T19:51:24.787Z,1.05
2022-09-27T19:53:54.789Z,0.70
2022-09-27T19:56:23.634Z,1.55
2022-09-27T19:58:51.879Z,1.08
2022-09-27T20:01:21.646Z,1.40
2022-09-27T20:03:51.067Z,3.08
2022-09-27T20:06:20.304Z,4.07
2022-09-27T20:08:48.756Z,3.35
2022-09-27T20:11:19.369Z,1.30
2022-09-27T20:13:47.230Z,1.05
2022-09-27T20:16:16.487Z,1.80
2022-09-27T20:18:46.121Z,0.80
2022-09-27T20:21:14.791Z,2.20
2022-09-27T20:23:43.177Z,3.00
2022-09-27T20:26:12.978Z,2.72
2022-09-27T20:28:43.692Z,3.25
2022-09-27T20:31:12.827Z,1.30
2022-09-27T20:33:43.760Z,0.85
2022-09-27T20:36:13.356Z,0.98
2022-09-27T20:38:42.356Z,2.47
2022-09-27T20:41:10.880Z,0.80
2022-09-27T20:43:39.554Z,0.85
2022-09-27T20:46:11.156Z,0.90
2022-09-27T20:48:40.062Z,0.85
2022-09-27T20:51:08.568Z,0.98
2022-09-27T20:53:36.532Z,1.52
2022-09-27T20:56:04.735Z,0.90
2022-09-27T20:58:33.152Z,0.95
2022-09-27T21:01:06.626Z,0.88
2022-09-27T21:03:35.826Z,0.98
2022-09-27T21:06:04.527Z,1.02
2022-09-27T21:08:34.040Z,5.28
2022-09-27T21:11:06.319Z,5.10
2022-09-27T21:13:34.092Z,1.00
2022-09-27T21:16:02.737Z,0.90
2022-09-27T21:18:30.606Z,0.80
2022-09-27T21:21:00.972Z,1.17
2022-09-27T21:23:29.941Z,0.70
2022-09-27T21:26:06.092Z,0.70
2022-09-27T21:31:06.378Z,1.17
2022-09-27T21:33:34.868Z,0.98
2022-09-27T21:36:05.848Z,0.98
2022-09-27T21:38:34.346Z,1.30
2022-09-27T21:41:03.974Z,1.52
2022-09-27T21:43:33.663Z,1.23
2022-09-27T21:46:06.269Z,0.90
2022-09-27T21:48:35.390Z,1.38
2022-09-27T21:51:06.688Z,1.15
2022-09-27T21:53:41.630Z,1.13
2022-09-27T21:56:11.208Z,0.90
2022-09-27T21:58:41.472Z,1.25
2022-09-27T22:01:10.991Z,1.80
2022-09-27T22:03:40.127Z,1.33
2022-09-27T22:06:12.804Z,1.75
2022-09-27T22:08:40.594Z,1.35
2022-09-27T22:11:09.760Z,0.90
2022-09-27T22:13:37.723Z,1.27
2022-09-27T22:16:06.649Z,1.20
2022-09-27T22:18:37.171Z,1.30
2022-09-27T22:21:05.761Z,1.23
2022-09-27T22:23:35.321Z,1.40
2022-09-27T22:26:12.545Z,1.63
2022-09-27T22:28:40.460Z,1.95
2022-09-27T22:31:09.474Z,1.40
2022-09-27T22:33:37.231Z,1.45
2022-09-27T22:36:06.014Z,1.10
2022-09-27T22:38:35.373Z,1.23
2022-09-27T22:41:04.204Z,1.08
2022-09-27T22:43:32.856Z,1.15
2022-09-27T22:46:01.131Z,1.33
2022-09-27T22:48:29.087Z,1.45
2022-09-27T22:50:57.797Z,1.40
2022-09-27T22:53:25.996Z,1.40
2022-09-27T22:56:01.958Z,1.10
2022-09-27T22:58:32.444Z,1.25
2022-09-27T23:01:00.565Z,1.90
2022-09-27T23:03:28.429Z,1.70
2022-09-27T23:06:02.506Z,1.67
2022-09-27T23:08:30.447Z,1.30
2022-09-27T23:11:04.961Z,1.70
2022-09-27T23:13:33.703Z,1.75
2022-09-27T23:16:02.847Z,1.83
2022-09-27T23:18:30.787Z,1.52
2022-09-27T23:21:03.176Z,1.23
2022-09-27T23:23:31.843Z,1.08
2022-09-27T23:26:00.751Z,1.23
2022-09-27T23:28:31.248Z,1.00
2022-09-27T23:31:05.498Z,0.85
2022-09-27T23:33:33.949Z,1.02
2022-09-27T23:36:02.435Z,1.25
2022-09-27T23:38:31.707Z,1.38
2022-09-27T23:40:59.947Z,1.45
2022-09-27T23:43:29.096Z,1.20
2022-09-27T23:45:57.315Z,0.98
2022-09-27T23:48:25.509Z,0.90
2022-09-27T23:50:53.774Z,1.20
2022-09-27T23:53:22.412Z,1.27
2022-09-27T23:56:02.098Z,1.23
2022-09-27T23:58:33.555Z,1.40
